Time;durP1;ratioP1;P1;durP2;ratioP2;P2;SDS_P1;SDS_P2;PMS_P1;PMS_P2;Temp;Humidity;BMP_temperature;BMP_pressure;BME280_temperature;BME280_humidity;BME280_pressure;Samples;Min_cycle;Max_cycle;Signal;HPM_P1;HPM_P2
2023/01/25 00:01:57;;;;;;;;;;;;;;;;;;5074679;28;19985;-72
2023/01/25 00:04:23;;;;;;;;;;;;;;;;;;5055078;28;19916;-72
2023/01/25 00:06:48;;;;;;;;;;;;;;;;;;5040842;28;19924;-73
2023/01/25 00:09:13;;;;;;;;;;;;;;;;;;5054030;28;19924;-72
2023/01/25 00:11:38;;;;;;;;;;;;;;;;;;5068659;28;20388;-73
2023/01/25 00:14:03;;;;;;;;;;;;;;;;;;5045840;28;19919;-72
2023/01/25 00:16:29;;;;;;;;;;;;;;;;;;5071535;28;19963;-72
2023/01/25 00:18:54;;;;;;;;;;;;;;;;;;5073057;28;20426;-72
2023/01/25 00:21:19;;;;;;;;;;;;;;;;;;5068915;28;20368;-73
2023/01/25 00:23:44;;;;;;;;;;;;;;;;;;5062602;28;19912;-73
2023/01/25 00:26:09;;;;;;;;;;;;;;;;;;5087313;28;19926;-73
2023/01/25 00:28:35;;;;;;;;;;;;;;;;;;5075114;28;19912;-72
2023/01/25 00:31:00;;;;;;;;;;;;;;;;;;5086251;28;19916;-72
2023/01/25 00:33:25;;;;;;;;;;;;;;;;;;5061466;28;20388;-71
2023/01/25 00:35:50;;;;;;;;;;;;;;;;;;5093344;28;19912;-73
2023/01/25 00:38:15;;;;;;;;;;;;;;;;;;5081117;28;19912;-72
2023/01/25 00:40:40;;;;;;;;;;;;;;;;;;5084451;28;19916;-72
2023/01/25 00:43:05;;;;;;;;;;;;;;;;;;5059060;28;19995;-72
2023/01/25 00:45:30;;;;;;;;;;;;;;;;;;5088822;28;19956;-72
2023/01/25 00:47:56;;;;;;;;;;;;;;;;;;5076621;28;20368;-72
2023/01/25 00:50:21;;;;;;;;;;;;;;;;;;5091290;28;20364;-72
2023/01/25 00:52:46;;;;;;;;;;;;;;;;;;5090258;28;19912;-72
2023/01/25 00:55:11;;;;;;;;;;;;;;;;;;5080966;28;19958;-72
2023/01/25 00:57:36;;;;;;;;;;;;;;;;;;5072002;28;20005;-72
2023/01/25 01:00:01;;;;;;;;;;;;;;;;;;5086235;28;19912;-72
2023/01/25 01:02:27;;;;;;;;;;;;;;;;;;5092732;28;19919;-72
2023/01/25 01:04:52;;;;;;;;;;;;;;;;;;5093034;28;20295;-72
2023/01/25 01:07:17;;;;;;;;;;;;;;;;;;5068709;28;20376;-72
2023/01/25 01:09:42;;;;;;;;;;;;;;;;;;5083452;28;19908;-72
2023/01/25 01:12:08;;;;;;;;;;;;;;;;;;5062660;28;19916;-71
2023/01/25 01:14:33;;;;;;;;;;;;;;;;;;5091608;28;19912;-71
2023/01/25 01:16:58;;;;;;;;;;;;;;;;;;5090097;28;19912;-73
2023/01/25 01:19:23;;;;;;;;;;;;;;;;;;5086714;28;20359;-71
2023/01/25 01:21:48;;;;;;;;;;;;;;;;;;5059036;28;20308;-72
2023/01/25 01:24:13;;;;;;;;;;;;;;;;;;5073132;28;19922;-72
2023/01/25 01:26:38;;;;;;;;;;;;;;;;;;5082112;28;19977;-71
2023/01/25 01:29:04;;;;;;;;;;;;;;;;;;5091523;28;19912;-72
2023/01/25 01:31:29;;;;;;;;;;;;;;;;;;5073162;28;19940;-71
2023/01/25 01:33:54;;;;;;;;;;;;;;;;;;5072878;28;20344;-71
2023/01/25 01:36:19;;;;;;;;;;;;;;;;;;5064210;28;20368;-72
2023/01/25 01:38:44;;;;;;;;;;;;;;;;;;5077614;28;20364;-72
2023/01/25 01:41:10;;;;;;;;;;;;;;;;;;5085631;28;19912;-72
2023/01/25 01:43:35;;;;;;;;;;;;;;;;;;5080256;28;19916;-72
2023/01/25 01:46:00;;;;;;;;;;;;;;;;;;5085068;28;19917;-73
2023/01/25 01:48:25;;;;;;;;;;;;;;;;;;5090934;28;19908;-72
2023/01/25 01:50:50;;;;;;;;;;;;;;;;;;5068433;28;19917;-73
2023/01/25 01:53:15;;;;;;;;;;;;;;;;;;5062948;28;19920;-72
2023/01/25 01:55:40;;;;;;;;;;;;;;;;;;5087057;28;19912;-72
2023/01/25 01:58:05;;;;;;;;;;;;;;;;;;5090275;28;19955;-72
2023/01/25 02:00:30;;;;;;;;;;;;;;;;;;5058145;28;19916;-73
2023/01/25 02:02:56;;;;;;;;;;;;;;;;;;5089723;28;19962;-73
2023/01/25 02:05:21;;;;;;;;;;;;;;;;;;5084154;28;19939;-73
2023/01/25 02:07:46;;;;;;;;;;;;;;;;;;5086325;28;19912;-73
2023/01/25 02:10:11;;;;;;;;;;;;;;;;;;5081054;28;19962;-73
2023/01/25 02:12:36;;;;;;;;;;;;;;;;;;5086193;28;19912;-73
2023/01/25 02:15:01;;;;;;;;;;;;;;;;;;5059850;28;21666;-72
2023/01/25 02:17:26;;;;;;;;;;;;;;;;;;5091116;28;20010;-73
2023/01/25 02:19:52;;;;;;;;;;;;;;;;;;5091428;28;19912;-72
2023/01/25 02:22:19;;;;;;;;;;;;;;;;;;5092658;28;19916;-72
2023/01/25 02:24:44;;;;;;;;;;;;;;;;;;5085961;28;19951;-73
2023/01/25 02:27:09;;;;;;;;;;;;;;;;;;5087348;28;20388;-72
2023/01/25 02:29:34;;;;;;;;;;;;;;;;;;5058717;28;20360;-72
2023/01/25 02:31:59;;;;;;;;;;;;;;;;;;5091363;28;19908;-72
2023/01/25 02:34:24;;;;;;;;;;;;;;;;;;5089294;28;19916;-73
2023/01/25 02:36:50;;;;;;;;;;;;;;;;;;5087154;28;19912;-72
2023/01/25 02:39:17;;;;;;;;;;;;;;;;;;5065652;28;20054;-72
2023/01/25 02:41:42;;;;;;;;;;;;;;;;;;5089331;28;19917;-72
2023/01/25 02:44:07;;;;;;;;;;;;;;;;;;5090524;28;19916;-72
2023/01/25 02:46:32;;;;;;;;;;;;;;;;;;5066293;28;19963;-72
2023/01/25 02:48:57;;;;;;;;;;;;;;;;;;5086908;28;19966;-72
2023/01/25 02:51:22;;;;;;;;;;;;;;;;;;5087981;28;19919;-72
2023/01/25 02:53:47;;;;;;;;;;;;;;;;;;5071944;28;19998;-72
2023/01/25 02:56:12;;;;;;;;;;;;;;;;;;5079734;28;19912;-72
2023/01/25 02:58:38;;;;;;;;;;;;;;;;;;5091931;28;19986;-73
2023/01/25 03:01:03;;;;;;;;;;;;;;;;;;5073155;28;19916;-73
2023/01/25 03:03:28;;;;;;;;;;;;;;;;;;5076787;28;19916;-72
2023/01/25 03:05:53;;;;;;;;;;;;;;;;;;5068674;28;20011;-72
2023/01/25 03:08:18;;;;;;;;;;;;;;;;;;5067987;28;20283;-72
2023/01/25 03:10:43;;;;;;;;;;;;;;;;;;5081159;28;19920;-73
2023/01/25 03:13:10;;;;;;;;;;;;;;;;;;5087705;28;19919;-73
2023/01/25 03:15:35;;;;;;;;;;;;;;;;;;5070100;28;20400;-72
2023/01/25 03:18:00;;;;;;;;;;;;;;;;;;5076778;28;20068;-73
2023/01/25 03:20:25;;;;;;;;;;;;;;;;;;5071072;28;19974;-73
2023/01/25 03:22:50;;;;;;;;;;;;;;;;;;5070537;28;20287;-73
2023/01/25 03:25:15;;;;;;;;;;;;;;;;;;5075143;28;20419;-73
2023/01/25 03:27:40;;;;;;;;;;;;;;;;;;5091018;28;20351;-72
2023/01/25 03:30:06;;;;;;;;;;;;;;;;;;5089345;28;19920;-73
2023/01/25 03:32:31;;;;;;;;;;;;;;;;;;5090589;28;19958;-73
2023/01/25 03:34:57;;;;;;;;;;;;;;;;;;5084055;28;19979;-73
2023/01/25 03:37:26;;;;;;;;;;;;;;;;;;5069902;28;20338;-73
2023/01/25 03:39:51;;;;;;;;;;;;;;;;;;5084332;28;19913;-72
2023/01/25 03:42:16;;;;;;;;;;;;;;;;;;5063275;28;19924;-72
2023/01/25 03:44:41;;;;;;;;;;;;;;;;;;5085609;28;19977;-73
2023/01/25 03:47:06;;;;;;;;;;;;;;;;;;5085384;28;20273;-73
2023/01/25 03:49:31;;;;;;;;;;;;;;;;;;5081323;28;19913;-73
2023/01/25 03:51:57;;;;;;;;;;;;;;;;;;5083487;28;19916;-73
2023/01/25 03:54:22;;;;;;;;;;;;;;;;;;5072153;28;19963;-71
2023/01/25 03:56:47;;;;;;;;;;;;;;;;;;5075192;28;20006;-71
2023/01/25 03:59:13;;;;;;;;;;;;;;;;;;5080854;28;19920;-71
2023/01/25 04:01:38;;;;;;;;;;;;;;;;;;5083455;28;19918;-72
2023/01/25 04:04:03;;;;;;;;;;;;;;;;;;5072251;28;19912;-73
2023/01/25 04:06:28;;;;;;;;;;;;;;;;;;5088841;28;20007;-72
2023/01/25 04:08:53;;;;;;;;;;;;;;;;;;5065047;28;20553;-72
2023/01/25 04:11:18;;;;;;;;;;;;;;;;;;5085375;28;19912;-72
2023/01/25 04:13:43;;;;;;;;;;;;;;;;;;5073211;28;19908;-71
2023/01/25 04:16:10;;;;;;;;;;;;;;;;;;5083201;28;19916;-72
2023/01/25 04:18:35;;;;;;;;;;;;;;;;;;5087637;28;19939;-71
2023/01/25 04:21:00;;;;;;;;;;;;;;;;;;5067621;28;19908;-71
2023/01/25 04:23:26;;;;;;;;;;;;;;;;;;5062618;28;19916;-72
2023/01/25 04:25:51;;;;;;;;;;;;;;;;;;5050751;28;19921;-72
2023/01/25 04:28:16;;;;;;;;;;;;;;;;;;5065189;28;20016;-72
2023/01/25 04:30:41;;;;;;;;;;;;;;;;;;5068518;28;19921;-72
2023/01/25 04:33:06;;;;;;;;;;;;;;;;;;5071243;28;20402;-72
2023/01/25 04:35:32;;;;;;;;;;;;;;;;;;5069769;28;20292;-72
2023/01/25 04:37:57;;;;;;;;;;;;;;;;;;5061577;28;19963;-72
2023/01/25 04:40:22;;;;;;;;;;;;;;;;;;5072524;28;20367;-72
2023/01/25 04:42:47;;;;;;;;;;;;;;;;;;5071502;28;20364;-72
2023/01/25 04:45:15;;;;;;;;;;;;;;;;;;5073818;28;19966;-72
2023/01/25 04:47:40;;;;;;;;;;;;;;;;;;5070802;28;19920;-72
2023/01/25 04:50:05;;;;;;;;;;;;;;;;;;5071238;28;19916;-72
2023/01/25 04:52:31;;;;;;;;;;;;;;;;;;5073165;28;19912;-71
2023/01/25 04:54:56;;;;;;;;;;;;;;;;;;5066298;28;19916;-72
2023/01/25 04:57:21;;;;;;;;;;;;;;;;;;5072856;28;20292;-72
2023/01/25 04:59:46;;;;;;;;;;;;;;;;;;5071203;28;19924;-72
2023/01/25 05:02:11;;;;;;;;;;;;;;;;;;5062693;28;19913;-72
2023/01/25 05:04:36;;;;;;;;;;;;;;;;;;5067118;28;20001;-72
2023/01/25 05:07:01;;;;;;;;;;;;;;;;;;5067982;28;19973;-72
2023/01/25 05:09:27;;;;;;;;;;;;;;;;;;5064718;28;19920;-71
2023/01/25 05:11:52;;;;;;;;;;;;;;;;;;5059841;28;19920;-73
2023/01/25 05:14:17;;;;;;;;;;;;;;;;;;5072431;28;20025;-73
2023/01/25 05:16:42;;;;;;;;;;;;;;;;;;5070732;28;20409;-73
2023/01/25 05:19:07;;;;;;;;;;;;;;;;;;5070879;28;19913;-73
2023/01/25 05:24:16;;;;;;;;;;;;;;;;;;5069603;28;20375;-72
2023/01/25 05:26:59;;;;;;;;;;;;;;;;;;5081357;28;19929;-72
2023/01/25 05:29:24;;;;;;;;;;;;;;;;;;5072678;28;20352;-73
2023/01/25 05:31:50;;;;;;;;;;;;;;;;;;5072852;28;19994;-72
2023/01/25 05:34:15;;;;;;;;;;;;;;;;;;5093672;28;19923;-73
2023/01/25 05:36:40;;;;;;;;;;;;;;;;;;5088422;28;19915;-72
2023/01/25 05:39:05;;;;;;;;;;;;;;;;;;5081579;28;19947;-73
2023/01/25 05:41:30;;;;;;;;;;;;;;;;;;5086954;28;19919;-72
2023/01/25 05:43:55;;;;;;;;;;;;;;;;;;5086736;28;19989;-72
2023/01/25 05:46:20;;;;;;;;;;;;;;;;;;5090040;28;19916;-77
2023/01/25 05:48:46;;;;;;;;;;;;;;;;;;5090752;28;19918;-77
2023/01/25 05:51:11;;;;;;;;;;;;;;;;;;5070943;28;19919;-75
2023/01/25 05:53:36;;;;;;;;;;;;;;;;;;5079559;28;19913;-75
2023/01/25 05:56:01;;;;;;;;;;;;;;;;;;5085058;28;20284;-75
2023/01/25 05:58:26;;;;;;;;;;;;;;;;;;5091734;28;20385;-75
2023/01/25 06:00:51;;;;;;;;;;;;;;;;;;5090441;28;19973;-74
2023/01/25 06:03:16;;;;;;;;;;;;;;;;;;5083992;28;19966;-74
2023/01/25 06:05:42;;;;;;;;;;;;;;;;;;5065627;28;19962;-73
2023/01/25 06:08:07;;;;;;;;;;;;;;;;;;5087003;28;19920;-74
2023/01/25 06:10:32;;;;;;;;;;;;;;;;;;5066733;28;20352;-74
2023/01/25 06:12:57;;;;;;;;;;;;;;;;;;5058740;28;20355;-73
2023/01/25 06:15:23;;;;;;;;;;;;;;;;;;5082431;28;19958;-73
2023/01/25 06:17:48;;;;;;;;;;;;;;;;;;5077442;28;19912;-72
2023/01/25 06:20:13;;;;;;;;;;;;;;;;;;5087419;28;19913;-75
2023/01/25 06:22:38;;;;;;;;;;;;;;;;;;5091369;28;20359;-75
2023/01/25 06:25:03;;;;;;;;;;;;;;;;;;5081807;28;20377;-75
2023/01/25 06:27:28;;;;;;;;;;;;;;;;;;5086360;28;19916;-75
2023/01/25 06:29:53;;;;;;;;;;;;;;;;;;5090856;28;20389;-75
2023/01/25 06:32:19;;;;;;;;;;;;;;;;;;5072264;28;19923;-73
2023/01/25 06:34:45;;;;;;;;;;;;;;;;;;5093416;28;19915;-73
2023/01/25 06:37:10;;;;;;;;;;;;;;;;;;5087608;28;20147;-73
2023/01/25 06:39:35;;;;;;;;;;;;;;;;;;5069042;28;19920;-73
2023/01/25 06:42:00;;;;;;;;;;;;;;;;;;5076072;28;19998;-73
2023/01/25 06:44:25;;;;;;;;;;;;;;;;;;5073988;28;19908;-73
2023/01/25 06:46:51;;;;;;;;;;;;;;;;;;5070754;28;19943;-74
2023/01/25 06:49:16;;;;;;;;;;;;;;;;;;5070454;28;20421;-72
2023/01/25 06:51:41;;;;;;;;;;;;;;;;;;5073361;28;19916;-73
2023/01/25 06:54:06;;;;;;;;;;;;;;;;;;5091756;28;19945;-73
2023/01/25 06:56:31;;;;;;;;;;;;;;;;;;5085033;28;19961;-73
2023/01/25 06:58:56;;;;;;;;;;;;;;;;;;5073253;28;19961;-73
2023/01/25 07:01:25;;;;;;;;;;;;;;;;;;5090627;28;20354;-73
2023/01/25 07:03:50;;;;;;;;;;;;;;;;;;5090983;28;19912;-72
2023/01/25 07:06:16;;;;;;;;;;;;;;;;;;5089079;28;19939;-72
2023/01/25 07:08:41;;;;;;;;;;;;;;;;;;5084076;28;20339;-72
2023/01/25 07:11:08;;;;;;;;;;;;;;;;;;5087798;28;20359;-72
2023/01/25 07:13:33;;;;;;;;;;;;;;;;;;5080705;28;19916;-72
2023/01/25 07:15:58;;;;;;;;;;;;;;;;;;5059685;28;19912;-72
2023/01/25 07:18:23;;;;;;;;;;;;;;;;;;5090835;28;19912;-72
2023/01/25 07:20:49;;;;;;;;;;;;;;;;;;5092592;28;19954;-73
2023/01/25 07:23:14;;;;;;;;;;;;;;;;;;5092678;28;19990;-73
2023/01/25 07:25:39;;;;;;;;;;;;;;;;;;5077066;28;19928;-73
2023/01/25 07:28:04;;;;;;;;;;;;;;;;;;5058150;28;20283;-73
2023/01/25 07:30:29;;;;;;;;;;;;;;;;;;5091586;28;19912;-72
2023/01/25 07:32:54;;;;;;;;;;;;;;;;;;5092637;28;19954;-72
2023/01/25 07:35:19;;;;;;;;;;;;;;;;;;5092475;28;19912;-72
2023/01/25 07:37:44;;;;;;;;;;;;;;;;;;5084192;28;19920;-72
2023/01/25 07:40:09;;;;;;;;;;;;;;;;;;5089149;28;20394;-72
2023/01/25 07:42:35;;;;;;;;;;;;;;;;;;5082231;28;19910;-73
2023/01/25 07:45:00;;;;;;;;;;;;;;;;;;5072031;28;19915;-72
2023/01/25 07:47:26;;;;;;;;;;;;;;;;;;5082487;28;19917;-73
2023/01/25 07:49:51;;;;;;;;;;;;;;;;;;5077558;28;19913;-73
2023/01/25 07:52:16;;;;;;;;;;;;;;;;;;5081940;28;19912;-73
2023/01/25 07:54:41;;;;;;;;;;;;;;;;;;5080097;28;20236;-72
2023/01/25 07:57:06;;;;;;;;;;;;;;;;;;5064639;28;19920;-71
2023/01/25 07:59:31;;;;;;;;;;;;;;;;;;5087835;28;19963;-72
2023/01/25 08:01:57;;;;;;;;;;;;;;;;;;5062405;28;19924;-73
2023/01/25 08:04:22;;;;;;;;;;;;;;;;;;5073552;28;19916;-73
2023/01/25 08:06:47;;;;;;;;;;;;;;;;;;5079368;28;19917;-73
2023/01/25 08:09:12;;;;;;;;;;;;;;;;;;5070836;28;19908;-73
2023/01/25 08:11:37;;;;;;;;;;;;;;;;;;5087307;28;19923;-74
2023/01/25 08:14:02;;;;;;;;;;;;;;;;;;5081867;28;19912;-73
2023/01/25 08:16:27;;;;;;;;;;;;;;;;;;5090004;28;19912;-73
2023/01/25 08:18:53;;;;;;;;;;;;;;;;;;5087676;28;19997;-75
2023/01/25 08:21:19;;;;;;;;;;;;;;;;;;5066322;28;19912;-76
2023/01/25 08:23:44;;;;;;;;;;;;;;;;;;5084590;28;20379;-74
2023/01/25 08:26:09;;;;;;;;;;;;;;;;;;5058235;28;20301;-74
2023/01/25 08:28:37;;;;;;;;;;;;;;;;;;5081557;28;19912;-75
2023/01/25 08:31:02;;;;;;;;;;;;;;;;;;5085204;28;19965;-72
2023/01/25 08:33:27;;;;;;;;;;;;;;;;;;5084842;28;19920;-72
2023/01/25 08:35:52;;;;;;;;;;;;;;;;;;5094358;28;20356;-72
2023/01/25 08:38:17;;;;;;;;;;;;;;;;;;5090214;28;19916;-72
2023/01/25 08:40:43;;;;;;;;;;;;;;;;;;5071961;28;19919;-72
2023/01/25 08:43:08;;;;;;;;;;;;;;;;;;5088537;28;19965;-72
2023/01/25 08:45:35;;;;;;;;;;;;;;;;;;5080839;28;19913;-72
2023/01/25 08:48:01;;;;;;;;;;;;;;;;;;5081086;28;19958;-73
2023/01/25 08:50:26;;;;;;;;;;;;;;;;;;5083354;28;19955;-73
2023/01/25 08:52:51;;;;;;;;;;;;;;;;;;5090765;28;19912;-72
2023/01/25 08:55:16;;;;;;;;;;;;;;;;;;5085521;28;19919;-73
2023/01/25 08:57:41;;;;;;;;;;;;;;;;;;5093599;28;19995;-73
2023/01/25 09:00:06;;;;;;;;;;;;;;;;;;5065730;28;19913;-72
2023/01/25 09:02:31;;;;;;;;;;;;;;;;;;5065228;28;19920;-72
2023/01/25 09:04:57;;;;;;;;;;;;;;;;;;5075005;28;19912;-72
2023/01/25 09:07:22;;;;;;;;;;;;;;;;;;5063324;28;19954;-71
2023/01/25 09:09:47;;;;;;;;;;;;;;;;;;5069317;28;20303;-72
2023/01/25 09:12:12;;;;;;;;;;;;;;;;;;5064977;28;20355;-71
2023/01/25 09:14:39;;;;;;;;;;;;;;;;;;5077932;28;20731;-71
2023/01/25 09:17:04;;;;;;;;;;;;;;;;;;5082392;28;19908;-72
2023/01/25 09:19:29;;;;;;;;;;;;;;;;;;5056765;28;19916;-71
2023/01/25 09:21:54;;;;;;;;;;;;;;;;;;5061263;28;19955;-71
2023/01/25 09:24:19;;;;;;;;;;;;;;;;;;5065093;28;19920;-72
2023/01/25 09:26:44;;;;;;;;;;;;;;;;;;5090202;28;19927;-72
2023/01/25 09:29:10;;;;;;;;;;;;;;;;;;5071443;28;19972;-72
2023/01/25 09:31:35;;;;;;;;;;;;;;;;;;5080345;28;19919;-72
2023/01/25 09:34:00;;;;;;;;;;;;;;;;;;5079297;28;19920;-71
2023/01/25 09:36:25;;;;;;;;;;;;;;;;;;5064157;28;19912;-71
2023/01/25 09:38:51;;;;;;;;;;;;;;;;;;5060220;28;19923;-72
2023/01/25 09:41:16;;;;;;;;;;;;;;;;;;5065658;28;20356;-72
2023/01/25 09:43:41;;;;;;;;;;;;;;;;;;5078623;28;20018;-73
2023/01/25 09:46:06;;;;;;;;;;;;;;;;;;5065848;28;20027;-72
2023/01/25 09:48:31;;;;;;;;;;;;;;;;;;5058806;28;19916;-72
2023/01/25 09:50:57;;;;;;;;;;;;;;;;;;5067691;28;20407;-72
2023/01/25 09:53:23;;;;;;;;;;;;;;;;;;5074411;28;19926;-72
2023/01/25 09:55:49;;;;;;;;;;;;;;;;;;5085923;28;20122;-72
2023/01/25 09:58:14;;;;;;;;;;;;;;;;;;5074082;28;19909;-72
2023/01/25 10:00:39;;;;;;;;;;;;;;;;;;5091009;28;20003;-72
2023/01/25 10:03:05;;;;;;;;;;;;;;;;;;5092770;28;19912;-72
2023/01/25 10:05:30;;;;;;;;;;;;;;;;;;5064175;28;19924;-72
2023/01/25 10:07:55;;;;;;;;;;;;;;;;;;5085393;28;19912;-72
2023/01/25 10:10:20;;;;;;;;;;;;;;;;;;5080203;28;20284;-71
2023/01/25 10:12:45;;;;;;;;;;;;;;;;;;5079444;28;19913;-71
2023/01/25 10:15:10;;;;;;;;;;;;;;;;;;5083883;28;20325;-71
2023/01/25 10:17:35;;;;;;;;;;;;;;;;;;5092686;28;19912;-72
2023/01/25 10:20:01;;;;;;;;;;;;;;;;;;5083112;28;19939;-72
2023/01/25 10:22:26;;;;;;;;;;;;;;;;;;5092828;28;19920;-72
2023/01/25 10:24:51;;;;;;;;;;;;;;;;;;5081079;28;20309;-71
2023/01/25 10:27:16;;;;;;;;;;;;;;;;;;5071060;28;20265;-72
2023/01/25 10:29:41;;;;;;;;;;;;;;;;;;5070272;28;20371;-72
2023/01/25 10:32:06;;;;;;;;;;;;;;;;;;5071013;28;20377;-71
2023/01/25 10:34:32;;;;;;;;;;;;;;;;;;5072890;28;19913;-71
2023/01/25 10:36:57;;;;;;;;;;;;;;;;;;5050892;28;19971;-71
2023/01/25 10:39:22;;;;;;;;;;;;;;;;;;5044287;28;19964;-71
2023/01/25 10:41:47;;;;;;;;;;;;;;;;;;5044979;28;19908;-72
2023/01/25 10:44:22;;;;;;;;;;;;;;;;;;5065607;28;19913;-72
2023/01/25 10:46:47;;;;;;;;;;;;;;;;;;5042360;28;19924;-71
2023/01/25 10:49:13;;;;;;;;;;;;;;;;;;5066165;28;19912;-72
2023/01/25 10:51:38;;;;;;;;;;;;;;;;;;5054931;28;20345;-72
2023/01/25 10:54:03;;;;;;;;;;;;;;;;;;5069129;28;19913;-72
2023/01/25 10:56:28;;;;;;;;;;;;;;;;;;5053434;28;19909;-72
2023/01/25 10:58:53;;;;;;;;;;;;;;;;;;5070954;28;19916;-72
2023/01/25 11:01:18;;;;;;;;;;;;;;;;;;5071893;28;20354;-72
2023/01/25 11:03:43;;;;;;;;;;;;;;;;;;5072912;28;19908;-72
2023/01/25 11:06:09;;;;;;;;;;;;;;;;;;5071149;28;20050;-72
2023/01/25 11:08:34;;;;;;;;;;;;;;;;;;5066986;28;19964;-72
2023/01/25 11:10:59;;;;;;;;;;;;;;;;;;5051116;28;19916;-72
2023/01/25 11:13:24;;;;;;;;;;;;;;;;;;5066524;28;19912;-72
2023/01/25 11:15:49;;;;;;;;;;;;;;;;;;5058591;28;20343;-73
2023/01/25 11:18:14;;;;;;;;;;;;;;;;;;5069505;28;19920;-71
2023/01/25 11:20:39;;;;;;;;;;;;;;;;;;5052655;28;19917;-72
2023/01/25 11:23:05;;;;;;;;;;;;;;;;;;5048612;28;19912;-71
2023/01/25 11:25:30;;;;;;;;;;;;;;;;;;5079536;28;20433;-71
2023/01/25 11:27:55;;;;;;;;;;;;;;;;;;5091657;28;19919;-71
2023/01/25 11:30:20;;;;;;;;;;;;;;;;;;5075679;28;19942;-72
2023/01/25 11:32:45;;;;;;;;;;;;;;;;;;5054828;28;19912;-72
2023/01/25 11:35:10;;;;;;;;;;;;;;;;;;5092353;28;19952;-71
2023/01/25 11:37:36;;;;;;;;;;;;;;;;;;5072290;28;20003;-71
2023/01/25 11:40:01;;;;;;;;;;;;;;;;;;5082972;28;19912;-72
2023/01/25 11:42:26;;;;;;;;;;;;;;;;;;5068462;28;20433;-72
2023/01/25 11:44:51;;;;;;;;;;;;;;;;;;5095891;28;19912;-72
2023/01/25 11:47:17;;;;;;;;;;;;;;;;;;5079796;28;19935;-72
2023/01/25 11:49:42;;;;;;;;;;;;;;;;;;5077331;28;20409;-72
2023/01/25 11:52:07;;;;;;;;;;;;;;;;;;5095286;28;20007;-72
2023/01/25 11:54:33;;;;;;;;;;;;;;;;;;5074937;28;19974;-72
2023/01/25 11:56:58;;;;;;;;;;;;;;;;;;5094564;28;19916;-72
2023/01/25 11:59:23;;;;;;;;;;;;;;;;;;5091488;28;19999;-75
2023/01/25 12:01:48;;;;;;;;;;;;;;;;;;5093713;28;19912;-75
2023/01/25 12:04:14;;;;;;;;;;;;;;;;;;5096341;28;19931;-74
2023/01/25 12:06:39;;;;;;;;;;;;;;;;;;5093795;28;19938;-72
2023/01/25 12:09:04;;;;;;;;;;;;;;;;;;5074183;28;19919;-71
2023/01/25 12:11:29;;;;;;;;;;;;;;;;;;5090475;28;19920;-72
2023/01/25 12:13:54;;;;;;;;;;;;;;;;;;5094874;28;19912;-71
2023/01/25 12:16:19;;;;;;;;;;;;;;;;;;5086898;28;19912;-72
2023/01/25 12:18:44;;;;;;;;;;;;;;;;;;5076381;28;19990;-72
2023/01/25 12:21:10;;;;;;;;;;;;;;;;;;5070135;28;19916;-71
2023/01/25 12:23:35;;;;;;;;;;;;;;;;;;5095899;28;20375;-72
2023/01/25 12:26:00;;;;;;;;;;;;;;;;;;5082573;28;20372;-72
2023/01/25 12:28:25;;;;;;;;;;;;;;;;;;5057900;28;19912;-73
2023/01/25 12:30:50;;;;;;;;;;;;;;;;;;5074629;28;19961;-73
2023/01/25 12:33:16;;;;;;;;;;;;;;;;;;5073371;28;20061;-72
2023/01/25 12:35:42;;;;;;;;;;;;;;;;;;5075417;28;19908;-73
2023/01/25 12:38:07;;;;;;;;;;;;;;;;;;5049508;28;19912;-73
2023/01/25 12:40:32;;;;;;;;;;;;;;;;;;5037447;28;19909;-73
2023/01/25 12:42:57;;;;;;;;;;;;;;;;;;5060340;28;20593;-73
2023/01/25 12:45:22;;;;;;;;;;;;;;;;;;5046875;28;19913;-73
2023/01/25 12:47:48;;;;;;;;;;;;;;;;;;5066595;28;20253;-72
2023/01/25 12:50:13;;;;;;;;;;;;;;;;;;5075136;28;20345;-72
2023/01/25 12:52:38;;;;;;;;;;;;;;;;;;5059220;28;20368;-72
2023/01/25 12:55:03;;;;;;;;;;;;;;;;;;5054625;28;19912;-73
2023/01/25 12:57:28;;;;;;;;;;;;;;;;;;5057166;28;19946;-73
2023/01/25 12:59:53;;;;;;;;;;;;;;;;;;5074377;28;19946;-72
2023/01/25 13:02:19;;;;;;;;;;;;;;;;;;5057091;28;19973;-71
2023/01/25 13:04:45;;;;;;;;;;;;;;;;;;5072743;28;20276;-72
2023/01/25 13:07:10;;;;;;;;;;;;;;;;;;5068891;28;19921;-73
2023/01/25 13:09:35;;;;;;;;;;;;;;;;;;5045357;28;19996;-73
2023/01/25 13:12:00;;;;;;;;;;;;;;;;;;5063130;28;19920;-72
2023/01/25 13:14:25;;;;;;;;;;;;;;;;;;5072713;28;19916;-72
2023/01/25 13:16:50;;;;;;;;;;;;;;;;;;5055501;28;20334;-73
2023/01/25 13:19:16;;;;;;;;;;;;;;;;;;5047510;28;19908;-72
2023/01/25 13:21:41;;;;;;;;;;;;;;;;;;5036689;28;20265;-72
2023/01/25 13:24:06;;;;;;;;;;;;;;;;;;5057065;28;20535;-73
2023/01/25 13:26:31;;;;;;;;;;;;;;;;;;5086502;28;19970;-71
2023/01/25 13:28:59;;;;;;;;;;;;;;;;;;5070058;28;19919;-71
2023/01/25 13:31:25;;;;;;;;;;;;;;;;;;5088000;28;19908;-73
2023/01/25 13:33:50;;;;;;;;;;;;;;;;;;5080884;28;19916;-78
2023/01/25 13:36:15;;;;;;;;;;;;;;;;;;5087744;28;19943;-72
2023/01/25 13:38:40;;;;;;;;;;;;;;;;;;5078488;28;19916;-72
2023/01/25 13:41:10;;;;;;;;;;;;;;;;;;5056313;28;19908;-72
2023/01/25 13:43:35;;;;;;;;;;;;;;;;;;5083534;28;19909;-72
2023/01/25 13:46:00;;;;;;;;;;;;;;;;;;5093384;28;19916;-72
2023/01/25 13:48:26;;;;;;;;;;;;;;;;;;5061890;28;19912;-72
2023/01/25 13:50:51;;;;;;;;;;;;;;;;;;5092754;28;19934;-73
2023/01/25 13:53:17;;;;;;;;;;;;;;;;;;5093925;28;20326;-73
2023/01/25 13:55:42;;;;;;;;;;;;;;;;;;5065236;28;20330;-73
2023/01/25 13:58:07;;;;;;;;;;;;;;;;;;5083040;28;19938;-73
2023/01/25 14:00:32;;;;;;;;;;;;;;;;;;5073623;28;20224;-72
2023/01/25 14:02:57;;;;;;;;;;;;;;;;;;5059927;28;19912;-73
2023/01/25 14:05:22;;;;;;;;;;;;;;;;;;5082090;28;19969;-73
2023/01/25 14:07:48;;;;;;;;;;;;;;;;;;5081402;28;19916;-72
2023/01/25 14:10:13;;;;;;;;;;;;;;;;;;5086410;28;19919;-73
2023/01/25 14:12:38;;;;;;;;;;;;;;;;;;5081634;28;20376;-72
2023/01/25 14:15:03;;;;;;;;;;;;;;;;;;5082000;28;20383;-74
2023/01/25 14:17:28;;;;;;;;;;;;;;;;;;5077687;28;19908;-75
2023/01/25 14:19:54;;;;;;;;;;;;;;;;;;5076628;28;20359;-73
2023/01/25 14:22:19;;;;;;;;;;;;;;;;;;5069783;28;20344;-76
2023/01/25 14:24:44;;;;;;;;;;;;;;;;;;5068893;28;19909;-75
2023/01/25 14:27:09;;;;;;;;;;;;;;;;;;5074254;28;19920;-75
2023/01/25 14:29:34;;;;;;;;;;;;;;;;;;5068610;28;19913;-76
2023/01/25 14:31:59;;;;;;;;;;;;;;;;;;5081897;28;19985;-74
2023/01/25 14:34:25;;;;;;;;;;;;;;;;;;5089946;28;20384;-75
2023/01/25 14:36:50;;;;;;;;;;;;;;;;;;5067479;28;19921;-74
2023/01/25 14:39:15;;;;;;;;;;;;;;;;;;5065047;28;19916;-76
2023/01/25 14:41:41;;;;;;;;;;;;;;;;;;5061123;28;19951;-78
2023/01/25 14:44:09;;;;;;;;;;;;;;;;;;5079720;28;19919;-75
2023/01/25 14:46:34;;;;;;;;;;;;;;;;;;5069831;28;19982;-76
2023/01/25 14:48:59;;;;;;;;;;;;;;;;;;5074719;28;20580;-76
2023/01/25 14:51:25;;;;;;;;;;;;;;;;;;5092183;28;19958;-75
2023/01/25 14:53:50;;;;;;;;;;;;;;;;;;5088866;28;19921;-77
2023/01/25 14:56:15;;;;;;;;;;;;;;;;;;5086044;28;20356;-78
2023/01/25 14:58:40;;;;;;;;;;;;;;;;;;5068957;28;20411;-74
2023/01/25 15:01:08;;;;;;;;;;;;;;;;;;5087781;28;19958;-76
2023/01/25 15:03:33;;;;;;;;;;;;;;;;;;5089030;28;19965;-76
2023/01/25 15:05:58;;;;;;;;;;;;;;;;;;5083584;28;19927;-75
2023/01/25 15:08:23;;;;;;;;;;;;;;;;;;5059981;28;19991;-74
2023/01/25 15:10:48;;;;;;;;;;;;;;;;;;5083200;28;19951;-75
2023/01/25 15:13:13;;;;;;;;;;;;;;;;;;5063265;28;19919;-75
2023/01/25 15:15:38;;;;;;;;;;;;;;;;;;5069565;28;19920;-76
2023/01/25 15:18:03;;;;;;;;;;;;;;;;;;5063075;28;19968;-78
2023/01/25 15:20:29;;;;;;;;;;;;;;;;;;5066949;28;20007;-75
2023/01/25 15:22:54;;;;;;;;;;;;;;;;;;5087721;28;19919;-74
2023/01/25 15:25:20;;;;;;;;;;;;;;;;;;5089187;28;19985;-77
2023/01/25 15:27:47;;;;;;;;;;;;;;;;;;5062939;28;20105;-74
2023/01/25 15:30:12;;;;;;;;;;;;;;;;;;5089681;28;19916;-75
2023/01/25 15:32:39;;;;;;;;;;;;;;;;;;5085755;28;19916;-74
2023/01/25 15:35:07;;;;;;;;;;;;;;;;;;5089739;28;20335;-74
2023/01/25 15:37:32;;;;;;;;;;;;;;;;;;5086304;28;20329;-76
2023/01/25 15:39:57;;;;;;;;;;;;;;;;;;5068497;28;19974;-75
2023/01/25 15:42:22;;;;;;;;;;;;;;;;;;5081569;28;19920;-74
2023/01/25 15:44:48;;;;;;;;;;;;;;;;;;5090841;28;20402;-75
2023/01/25 15:47:13;;;;;;;;;;;;;;;;;;5090381;28;19979;-74
2023/01/25 15:49:38;;;;;;;;;;;;;;;;;;5063999;28;19915;-74
2023/01/25 15:52:03;;;;;;;;;;;;;;;;;;5088197;28;19916;-75
2023/01/25 15:54:28;;;;;;;;;;;;;;;;;;5090002;28;19923;-74
2023/01/25 15:56:54;;;;;;;;;;;;;;;;;;5054953;28;19916;-75
2023/01/25 15:59:19;;;;;;;;;;;;;;;;;;5089274;28;19920;-74
2023/01/25 16:01:44;;;;;;;;;;;;;;;;;;5087613;28;19994;-75
2023/01/25 16:04:09;;;;;;;;;;;;;;;;;;5083512;28;19924;-75
2023/01/25 16:06:35;;;;;;;;;;;;;;;;;;5069729;28;19920;-76
2023/01/25 16:09:00;;;;;;;;;;;;;;;;;;5066388;28;19967;-75
2023/01/25 16:11:25;;;;;;;;;;;;;;;;;;5090616;28;20330;-76
2023/01/25 16:13:50;;;;;;;;;;;;;;;;;;5087805;28;20318;-75
2023/01/25 16:16:15;;;;;;;;;;;;;;;;;;5080772;28;20380;-75
2023/01/25 16:18:40;;;;;;;;;;;;;;;;;;5087235;28;19923;-73
2023/01/25 16:21:08;;;;;;;;;;;;;;;;;;5089506;28;19912;-74
2023/01/25 16:23:33;;;;;;;;;;;;;;;;;;5090074;28;19913;-73
2023/01/25 16:25:58;;;;;;;;;;;;;;;;;;5084291;28;19927;-74
2023/01/25 16:28:23;;;;;;;;;;;;;;;;;;5091544;28;20340;-75
2023/01/25 16:30:48;;;;;;;;;;;;;;;;;;5092221;28;20411;-75
2023/01/25 16:33:13;;;;;;;;;;;;;;;;;;5091125;28;20304;-75
2023/01/25 16:35:39;;;;;;;;;;;;;;;;;;5091379;28;19916;-74